Tougaloo, MS (39174)

5:46 AM CDT on July 27, 2016 (GMT -0500)
Northside Drive State Park | | Change Station

Elev 371 ft 32.36 °N, 90.13 °W | Updated 1 second ago

Overcast
Overcast
76.6 °F
Feels Like 78 °F
N
0.0
Wind Variable Wind from SSW
Gusts 0.0 mph

Today
High -- | Low -- °F
--% Chance of Precip.
Yesterday
High -- | Low -- °F
Precip. -- in
Pressure 29.95 in
Visibility 10.0 miles
Clouds Scattered Clouds 600 ft
Mostly Cloudy 2200 ft
Overcast 3700 ft
Heat Index 78 °F
Dew Point 71 °F
Humidity 84%
Rainfall 0.00 in
Snow Depth Not available.
6:12 AM 8:01 PM
Last Quarter, 44% visible
SPECI KHKS 271034Z AUTO 17004KT 10SM SCT006 BKN022 OVC037 24/23 A2995 RMK AO2 T02440228
Pressure 29.95 in
Visibility 10.0 miles
Clouds Scattered Clouds 600 ft
Mostly Cloudy 2200 ft
Overcast 3700 ft
Heat Index 78 °F
Dew Point 71 °F
Humidity 84%
Rainfall 0.00 in
Snow Depth Not available.
6:12 AM 8:01 PM
Last Quarter, 44% visible
SPECI KHKS 271034Z AUTO 17004KT 10SM SCT006 BKN022 OVC037 24/23 A2995 RMK AO2 T02440228

10-Day Weather Forecast

Almanac

Astronomy

Jul. 27, 2016 Rise Set
Actual Time
Civil Twilight
Nautical Twilight
Astronomical Twilight
Moon
Length of Visible Light
Length of Day
Tomorrow will be .
, % of the Moon is Illuminated

Today's Extremes

State Highs State Lows

Community

WunderPhotos

Upload Photos

1,927,825 photos uploaded!

WunderBlog® & News

Nearby

Air Quality

  Air Quality AQ Index Pollutant
Not available.

Snow Depth

Station Depth Elevation

Earthquake Activity

City Distance Mag. Time & Date
Minimum magnitude displayed is 2.5.

Coastal Water Temperatures

Place Temperature

Stations

Nearby Weather Stations

Station Location Temp. Windchill Dew Point Humidity Wind Precip. Elev Updated Type
                   

Watches & Warnings

There are currently no watches in effect.